Time;durP1;ratioP1;P1;durP2;ratioP2;P2;SDS_P1;SDS_P2;PMS_P1;PMS_P2;Temp;Humidity;BMP_temperature;BMP_pressure;BME280_temperature;BME280_humidity;BME280_pressure;Samples;Min_cycle;Max_cycle;Signal;HPM_P1;HPM_P2
2022/06/18 00:00:53;;;;;;;4.18;2.95;;;22.80;94.20;;;;;;5034318;28;20172;-77
2022/06/18 00:03:19;;;;;;;3.75;2.83;;;22.80;94.60;;;;;;5015939;28;20215;-77
2022/06/18 00:05:47;;;;;;;4.57;2.85;;;22.70;94.40;;;;;;5016188;28;20206;-76
2022/06/18 00:08:21;;;;;;;4.03;2.45;;;22.70;94.50;;;;;;5033070;28;20216;-77
2022/06/18 00:10:49;;;;;;;5.50;2.95;;;22.60;94.60;;;;;;5032977;28;20234;-77
2022/06/18 00:16:00;;;;;;;3.40;2.85;;;22.60;94.80;;;;;;5034209;28;20219;-77
2022/06/18 00:18:26;;;;;;;4.93;3.33;;;22.60;94.90;;;;;;5031920;28;20295;-77
2022/06/18 00:20:52;;;;;;;5.15;3.40;;;22.60;95.10;;;;;;5014676;28;20204;-77
2022/06/18 00:23:19;;;;;;;6.35;3.63;;;22.60;95.20;;;;;;5014262;28;20208;-77
2022/06/18 00:25:47;;;;;;;6.20;3.55;;;22.50;95.30;;;;;;5006180;28;20204;-78
2022/06/18 00:28:15;;;;;;;5.90;3.42;;;22.50;95.40;;;;;;5014129;28;20211;-77
2022/06/18 00:30:41;;;;;;;5.55;3.53;;;22.40;95.50;;;;;;5014910;28;20307;-75
2022/06/18 00:33:07;;;;;;;5.43;3.83;;;22.40;95.70;;;;;;5014573;28;20204;-77
2022/06/18 00:35:34;;;;;;;5.93;3.63;;;22.30;95.80;;;;;;5031742;28;20213;-76
2022/06/18 00:38:01;;;;;;;7.53;3.70;;;22.30;96.00;;;;;;5031579;28;20327;-75
2022/06/18 00:40:29;;;;;;;9.60;3.78;;;22.30;96.10;;;;;;5014977;28;20267;-77
2022/06/18 00:42:59;;;;;;;4.00;3.30;;;22.30;96.30;;;;;;5039641;28;20177;-76
2022/06/18 00:45:27;;;;;;;3.85;3.53;;;22.20;96.40;;;;;;5014411;28;20200;-76
2022/06/18 00:48:09;;;;;;;5.47;3.40;;;22.20;96.50;;;;;;5013273;28;20247;-78
2022/06/18 00:50:43;;;;;;;4.22;3.83;;;22.20;97.10;;;;;;5031579;28;20577;-78
2022/06/18 00:53:15;;;;;;;6.13;3.50;;;22.10;96.80;;;;;;5031946;28;20685;-77
2022/06/18 00:55:52;;;;;;;7.18;3.85;;;22.10;96.90;;;;;;5007086;28;20207;-76
2022/06/18 00:58:25;;;;;;;4.20;3.28;;;22.10;97.10;;;;;;5014187;28;20363;-77
2022/06/18 01:00:51;;;;;;;4.65;3.95;;;22.10;97.20;;;;;;5015697;28;20187;-77
2022/06/18 01:03:33;;;;;;;7.32;4.15;;;22.00;97.40;;;;;;5014399;28;20216;-77
2022/06/18 01:06:08;;;;;;;6.47;3.90;;;22.00;97.70;;;;;;5014041;28;20254;-77
2022/06/18 01:08:34;;;;;;;4.75;4.03;;;22.00;97.90;;;;;;5013189;28;20211;-76
2022/06/18 01:11:04;;;;;;;6.13;3.90;;;22.00;97.90;;;;;;5013722;28;20283;-77
2022/06/18 01:13:36;;;;;;;4.53;3.83;;;21.80;98.10;;;;;;5013608;28;20212;-76
2022/06/18 01:16:04;;;;;;;7.45;3.92;;;21.90;98.40;;;;;;5032161;28;20178;-75
2022/06/18 01:18:31;;;;;;;5.25;3.97;;;21.80;98.50;;;;;;5013297;28;20207;-76
2022/06/18 01:21:14;;;;;;;7.07;4.22;;;21.80;98.40;;;;;;5031822;28;20211;-76
2022/06/18 01:24:12;;;;;;;6.22;3.97;;;21.80;98.60;;;;;;5031756;28;20208;-77
2022/06/18 01:26:38;;;;;;;4.03;3.67;;;21.70;98.90;;;;;;4993783;28;20226;-77
2022/06/18 01:29:04;;;;;;;6.30;3.90;;;21.70;99.10;;;;;;5021888;28;20291;-76
2022/06/18 01:31:31;;;;;;;4.57;3.63;;;21.70;99.20;;;;;;5014107;28;20216;-76
2022/06/18 01:33:57;;;;;;;4.43;4.03;;;21.60;99.40;;;;;;5032233;28;20177;-77
2022/06/18 01:36:25;;;;;;;7.95;4.13;;;21.60;99.50;;;;;;5013372;28;20212;-77
2022/06/18 01:38:51;;;;;;;5.80;3.97;;;21.60;99.70;;;;;;5032144;28;20216;-77
2022/06/18 01:44:16;;;;;;;8.98;4.15;;;21.60;99.70;;;;;;5031590;28;20247;-77
2022/06/18 01:46:46;;;;;;;4.20;3.40;;;21.50;99.90;;;;;;5014039;28;20212;-77
2022/06/18 01:49:16;;;;;;;8.35;4.13;;;21.40;99.90;;;;;;5031418;28;20216;-76
2022/06/18 01:51:46;;;;;;;5.15;3.15;;;21.40;99.90;;;;;;5015167;28;20184;-77
2022/06/18 01:54:17;;;;;;;4.00;3.60;;;21.40;99.90;;;;;;5033286;28;20723;-77
2022/06/18 01:56:48;;;;;;;3.90;3.50;;;21.30;99.90;;;;;;5028052;28;20192;-77
2022/06/18 01:59:23;;;;;;;4.00;3.47;;;21.40;99.90;;;;;;5017624;28;20224;-76
2022/06/18 02:01:50;;;;;;;3.40;3.10;;;21.30;99.90;;;;;;5017966;28;20200;-77
2022/06/18 02:04:18;;;;;;;3.33;2.88;;;21.30;99.90;;;;;;5025534;28;20171;-77
2022/06/18 02:06:45;;;;;;;3.45;3.05;;;21.20;99.90;;;;;;5036044;28;20196;-77
2022/06/18 02:09:29;;;;;;;5.03;3.22;;;21.20;99.90;;;;;;5017639;28;20255;-77
2022/06/18 02:11:57;;;;;;;4.07;3.40;;;21.20;99.90;;;;;;5017542;28;20295;-77
2022/06/18 02:14:25;;;;;;;4.25;3.40;;;21.10;99.90;;;;;;5017519;28;20211;-77
2022/06/18 02:16:52;;;;;;;4.15;3.13;;;21.10;99.90;;;;;;5034806;28;20254;-76
2022/06/18 02:19:20;;;;;;;3.55;2.60;;;21.10;99.90;;;;;;5016756;28;20235;-77
2022/06/18 02:21:50;;;;;;;4.40;2.90;;;21.00;99.90;;;;;;5035384;28;20182;-76
2022/06/18 02:24:17;;;;;;;4.00;3.15;;;21.00;99.90;;;;;;5034888;28;20207;-77
2022/06/18 02:26:45;;;;;;;4.47;3.15;;;21.00;99.90;;;;;;5008747;28;20231;-77
2022/06/18 02:29:28;;;;;;;6.43;2.70;;;21.10;99.90;;;;;;5016588;28;20239;-76
2022/06/18 02:31:54;;;;;;;2.70;2.50;;;21.00;99.90;;;;;;5009351;28;20278;-77
2022/06/18 02:34:27;;;;;;;3.95;3.10;;;20.90;99.90;;;;;;5016640;28;20187;-77
2022/06/18 02:36:52;;;;;;;4.32;2.65;;;21.00;99.90;;;;;;5006949;28;20307;-77
2022/06/18 02:39:36;;;;;;;2.95;2.63;;;20.90;99.90;;;;;;5033900;28;20761;-77
2022/06/18 02:42:10;;;;;;;5.32;2.45;;;20.90;99.90;;;;;;5010430;28;20231;-77
2022/06/18 02:44:38;;;;;;;3.58;2.20;;;20.90;99.90;;;;;;5012118;28;20208;-77
2022/06/18 02:47:06;;;;;;;3.35;2.90;;;20.90;99.90;;;;;;5016163;28;20212;-77
2022/06/18 02:49:35;;;;;;;4.25;2.55;;;20.90;99.90;;;;;;5033565;28;20227;-77
2022/06/18 02:52:03;;;;;;;3.92;2.58;;;20.90;99.90;;;;;;5016870;28;20179;-77
2022/06/18 02:54:29;;;;;;;4.90;2.65;;;20.80;99.90;;;;;;5016216;28;20239;-77
2022/06/18 02:56:56;;;;;;;3.35;2.63;;;20.90;99.90;;;;;;5016771;28;20204;-77
2022/06/18 02:59:22;;;;;;;2.92;2.67;;;20.90;99.90;;;;;;5016427;28;20272;-75
2022/06/18 03:01:47;;;;;;;3.85;2.40;;;20.80;99.90;;;;;;5034108;28;20277;-76
2022/06/18 03:04:13;;;;;;;4.97;2.88;;;20.70;99.90;;;;;;5033989;28;20532;-77
2022/06/18 03:06:38;;;;;;;5.50;2.60;;;20.70;99.90;;;;;;5015581;28;20205;-77
2022/06/18 03:09:04;;;;;;;4.43;2.30;;;20.70;99.90;;;;;;5016567;28;20759;-76
2022/06/18 03:14:17;;;;;;;2.80;2.47;;;20.80;99.90;;;;;;5028645;28;20212;-76
2022/06/18 03:16:43;;;;;;;4.97;4.35;;;20.80;99.90;;;;;;5032130;28;20684;-76
2022/06/18 03:19:23;;;;;;;3.10;2.42;;;20.90;99.90;;;;;;5015426;28;20298;-76
2022/06/18 03:21:52;;;;;;;6.20;2.80;;;21.00;99.90;;;;;;5009150;28;20204;-77
2022/06/18 03:24:19;;;;;;;6.40;2.60;;;21.20;99.90;;;;;;5016003;28;20208;-77
2022/06/18 03:26:45;;;;;;;4.68;2.78;;;21.90;99.90;;;;;;5015886;28;20264;-77
2022/06/18 03:29:10;;;;;;;4.78;3.63;;;22.60;99.90;;;;;;5015533;28;20684;-77
2022/06/18 03:31:36;;;;;;;3.90;2.35;;;23.10;99.90;;;;;;5018562;28;20204;-77
2022/06/18 03:34:02;;;;;;;3.42;3.03;;;23.60;99.80;;;;;;5019950;28;20169;-77
2022/06/18 03:36:28;;;;;;;5.55;2.97;;;24.20;98.80;;;;;;5018428;28;20233;-77
2022/06/18 03:38:54;;;;;;;5.35;2.28;;;24.50;98.30;;;;;;5018406;28;20208;-77
2022/06/18 03:41:21;;;;;;;3.33;2.47;;;24.90;97.60;;;;;;5019960;28;20196;-77
2022/06/18 03:43:47;;;;;;;3.47;2.50;;;24.90;97.10;;;;;;5019287;28;20223;-77
2022/06/18 03:46:15;;;;;;;3.55;2.35;;;24.70;97.20;;;;;;5035987;28;20704;-76
2022/06/18 03:48:41;;;;;;;5.10;2.38;;;24.10;98.00;;;;;;5019007;28;20216;-77
2022/06/18 03:51:07;;;;;;;2.88;2.22;;;24.80;97.70;;;;;;5019346;28;20200;-77
2022/06/18 03:53:32;;;;;;;4.38;2.20;;;25.10;97.10;;;;;;5018514;28;20196;-77
2022/06/18 03:55:58;;;;;;;4.40;4.00;;;25.20;96.90;;;;;;5018190;28;20207;-77
2022/06/18 03:58:24;;;;;;;5.10;2.85;;;26.10;96.20;;;;;;5035716;28;20285;-76
2022/06/18 04:00:50;;;;;;;4.30;2.28;;;27.20;94.80;;;;;;5019026;28;20204;-77
2022/06/18 04:03:16;;;;;;;3.88;2.15;;;27.60;93.40;;;;;;5037069;28;20246;-76
2022/06/18 04:05:42;;;;;;;5.97;3.17;;;28.20;92.90;;;;;;5018811;28;20200;-76
2022/06/18 04:08:11;;;;;;;2.83;2.20;;;28.20;92.20;;;;;;5016313;28;20220;-77
2022/06/18 04:10:37;;;;;;;2.35;2.08;;;27.90;92.00;;;;;;5018642;28;20302;-77
2022/06/18 04:13:03;;;;;;;4.35;2.00;;;28.80;91.50;;;;;;5020032;28;20226;-77
2022/06/18 04:15:28;;;;;;;5.00;1.90;;;29.20;90.30;;;;;;5030862;28;20577;-76
2022/06/18 04:17:54;;;;;;;3.50;2.30;;;29.90;89.50;;;;;;5035531;28;20245;-77
2022/06/18 04:20:27;;;;;;;2.85;2.20;;;29.50;88.60;;;;;;5016852;28;20208;-77
2022/06/18 04:22:53;;;;;;;2.80;1.77;;;30.20;87.30;;;;;;5011049;28;20215;-75
2022/06/18 04:25:18;;;;;;;3.85;2.05;;;30.70;85.50;;;;;;5035915;28;20185;-77
2022/06/18 04:27:44;;;;;;;3.97;1.95;;;30.60;84.60;;;;;;5018235;28;20214;-77
2022/06/18 04:30:11;;;;;;;4.40;1.60;;;30.50;85.60;;;;;;5017787;28;20196;-77
2022/06/18 04:32:38;;;;;;;3.85;1.85;;;30.30;84.50;;;;;;5036246;28;20212;-77
2022/06/18 04:35:09;;;;;;;3.80;2.08;;;30.60;84.50;;;;;;5018071;28;20209;-77
2022/06/18 04:37:35;;;;;;;3.03;2.22;;;31.50;82.70;;;;;;5034275;28;20215;-77
2022/06/18 04:40:01;;;;;;;3.15;1.80;;;31.50;81.80;;;;;;5017333;28;20218;-77
2022/06/18 04:42:27;;;;;;;3.25;2.25;;;32.10;81.00;;;;;;5015306;28;20204;-76
2022/06/18 04:44:53;;;;;;;2.92;1.73;;;32.40;80.30;;;;;;5008752;28;20200;-75
2022/06/18 04:47:19;;;;;;;2.70;1.80;;;32.70;79.40;;;;;;5015026;28;20216;-75
2022/06/18 04:49:45;;;;;;;2.90;2.13;;;32.60;78.80;;;;;;5015856;28;20345;-76
2022/06/18 04:52:11;;;;;;;2.33;1.42;;;32.60;78.30;;;;;;5016412;28;20183;-77
2022/06/18 04:54:37;;;;;;;2.60;1.60;;;33.00;77.10;;;;;;5034257;28;20177;-76
2022/06/18 04:57:03;;;;;;;2.45;2.08;;;33.30;76.30;;;;;;5034504;28;20236;-77
2022/06/18 04:59:30;;;;;;;3.08;2.50;;;33.60;76.00;;;;;;5014521;28;20398;-76
2022/06/18 05:02:06;;;;;;;2.28;1.50;;;33.60;75.40;;;;;;5013448;28;20208;-76
2022/06/18 05:04:32;;;;;;;2.65;1.80;;;34.10;73.70;;;;;;5031101;28;20204;-76
2022/06/18 05:06:58;;;;;;;3.58;1.98;;;33.50;73.90;;;;;;5031553;28;20199;-76
2022/06/18 05:09:23;;;;;;;3.17;1.80;;;33.50;74.60;;;;;;5012869;28;20204;-76
2022/06/18 05:11:49;;;;;;;1.60;1.48;;;34.10;73.70;;;;;;5013263;28;20215;-76
2022/06/18 05:14:15;;;;;;;2.35;1.63;;;35.20;72.30;;;;;;5030924;28;20218;-76
2022/06/18 05:16:42;;;;;;;4.40;1.60;;;34.70;71.50;;;;;;5013076;28;20218;-76
2022/06/18 05:19:24;;;;;;;5.45;3.50;;;34.70;71.10;;;;;;5013501;28;20219;-76
2022/06/18 05:21:50;;;;;;;2.30;2.10;;;35.40;70.60;;;;;;5013454;28;20270;-76
2022/06/18 05:24:16;;;;;;;3.50;2.38;;;35.80;70.00;;;;;;5012944;28;20203;-76
2022/06/18 05:26:49;;;;;;;2.83;1.63;;;35.40;68.70;;;;;;5012934;28;20235;-76
2022/06/18 05:29:15;;;;;;;3.00;1.77;;;35.10;68.80;;;;;;5013924;28;20212;-76
2022/06/18 05:31:41;;;;;;;2.47;1.70;;;35.10;68.30;;;;;;5016809;28;20219;-76
2022/06/18 05:34:08;;;;;;;6.75;3.33;;;35.50;68.70;;;;;;5035543;28;20538;-76
2022/06/18 05:36:33;;;;;;;9.10;7.28;;;35.90;68.00;;;;;;5016789;28;20258;-76
2022/06/18 05:39:00;;;;;;;7.18;5.22;;;35.80;68.40;;;;;;5016563;28;20203;-77
2022/06/18 05:41:26;;;;;;;13.55;10.38;;;36.00;67.30;;;;;;5034641;28;20816;-76
2022/06/18 05:43:52;;;;;;;2.67;1.90;;;36.20;67.60;;;;;;5015904;28;20249;-76
2022/06/18 05:46:18;;;;;;;3.35;1.88;;;36.00;65.60;;;;;;5013119;28;20267;-76
2022/06/18 05:48:44;;;;;;;5.30;1.65;;;36.60;65.90;;;;;;5068360;23;20223;-72
2022/06/18 05:51:09;;;;;;;2.17;1.98;;;35.80;66.10;;;;;;5054634;28;20210;-72
2022/06/18 05:53:35;;;;;;;4.85;3.92;;;36.10;66.00;;;;;;5036170;28;20203;-73
2022/06/18 05:56:01;;;;;;;2.20;1.98;;;36.50;66.60;;;;;;5036504;28;20301;-73
2022/06/18 05:58:27;;;;;;;6.05;2.30;;;37.40;64.80;;;;;;5054270;28;20285;-73
2022/06/18 06:00:53;;;;;;;4.45;2.33;;;37.30;64.90;;;;;;5037290;28;20186;-74
2022/06/18 06:03:19;;;;;;;4.03;2.28;;;37.90;64.40;;;;;;5054075;28;20211;-73
2022/06/18 06:05:44;;;;;;;3.30;2.97;;;38.30;63.40;;;;;;5053756;28;20211;-73
2022/06/18 06:08:14;;;;;;;3.33;2.30;;;38.50;62.50;;;;;;5035952;28;20680;-73
2022/06/18 06:13:24;;;;;;;2.83;2.15;;;38.70;61.70;;;;;;5054053;28;20186;-73
2022/06/18 06:15:52;;;;;;;2.85;2.53;;;38.90;61.00;;;;;;5054646;28;20175;-73
2022/06/18 06:18:19;;;;;;;3.38;3.08;;;39.20;60.30;;;;;;5035754;28;20260;-73
2022/06/18 06:20:47;;;;;;;4.05;3.10;;;38.80;61.10;;;;;;5045809;28;20206;-73
2022/06/18 06:23:14;;;;;;;6.32;5.72;;;39.00;61.00;;;;;;5050127;28;20210;-73
2022/06/18 06:25:42;;;;;;;10.68;9.75;;;39.40;60.70;;;;;;5063768;28;20211;-73
2022/06/18 06:28:12;;;;;;;5.50;4.03;;;39.50;60.70;;;;;;5045904;28;20286;-73
2022/06/18 06:30:40;;;;;;;5.05;3.70;;;39.80;59.20;;;;;;5051033;28;20267;-73
2022/06/18 06:33:06;;;;;;;4.25;3.85;;;39.90;59.10;;;;;;5057006;28;20605;-74
2022/06/18 06:35:31;;;;;;;4.90;4.18;;;40.40;58.70;;;;;;5035379;28;20234;-73
2022/06/18 06:37:57;;;;;;;7.43;5.40;;;39.80;58.40;;;;;;5053232;28;20643;-73
2022/06/18 06:40:24;;;;;;;5.35;4.85;;;40.10;58.80;;;;;;5035225;28;20186;-73
2022/06/18 06:42:53;;;;;;;4.40;3.40;;;40.20;58.40;;;;;;5054481;28;20598;-73
2022/06/18 06:45:23;;;;;;;6.70;5.03;;;40.40;57.90;;;;;;5053500;28;20701;-73
2022/06/18 06:47:49;;;;;;;5.28;4.05;;;40.10;58.00;;;;;;5034726;28;20225;-73
2022/06/18 06:50:16;;;;;;;3.70;3.40;;;40.50;57.90;;;;;;5035080;28;20612;-73
2022/06/18 06:52:43;;;;;;;6.50;5.90;;;40.80;57.50;;;;;;5035084;28;20252;-74
2022/06/18 06:58:06;;;;;;;7.22;4.13;;;41.60;55.60;;;;;;5053165;28;20551;-73
2022/06/18 07:00:35;;;;;;;3.65;3.35;;;40.80;56.00;;;;;;5034608;28;20199;-73
2022/06/18 07:03:00;;;;;;;5.60;3.90;;;40.70;55.90;;;;;;5053046;28;20199;-73
2022/06/18 07:05:26;;;;;;;4.45;3.92;;;40.30;56.60;;;;;;5035100;28;20286;-73
2022/06/18 07:07:52;;;;;;;5.55;3.58;;;40.90;56.60;;;;;;5052973;28;20367;-74
2022/06/18 07:10:18;;;;;;;4.30;4.00;;;41.50;55.80;;;;;;5035293;28;20590;-74
2022/06/18 07:12:44;;;;;;;3.75;3.35;;;41.30;55.40;;;;;;5053082;28;20171;-73
2022/06/18 07:15:10;;;;;;;3.20;2.97;;;41.50;55.30;;;;;;5034651;28;20256;-73
2022/06/18 07:17:36;;;;;;;4.68;3.60;;;41.60;54.60;;;;;;5052251;28;20229;-73
2022/06/18 07:20:04;;;;;;;3.92;3.03;;;41.90;55.10;;;;;;5034444;28;20715;-73
2022/06/18 07:22:31;;;;;;;3.80;3.28;;;41.90;54.30;;;;;;5034163;28;20211;-73
2022/06/18 07:24:57;;;;;;;2.95;2.75;;;41.90;54.40;;;;;;5034800;28;20171;-73
2022/06/18 07:27:22;;;;;;;3.20;3.00;;;41.60;54.60;;;;;;5034016;28;20210;-73
2022/06/18 07:29:48;;;;;;;3.55;2.30;;;41.60;54.80;;;;;;5033865;28;20207;-74
2022/06/18 07:32:16;;;;;;;7.20;5.28;;;40.90;55.10;;;;;;5034342;28;20223;-74
2022/06/18 07:34:42;;;;;;;5.10;4.53;;;41.20;55.40;;;;;;5033884;28;20277;-75
2022/06/18 07:37:08;;;;;;;7.07;6.45;;;41.40;55.10;;;;;;5034870;28;20595;-74
2022/06/18 07:39:34;;;;;;;6.57;4.90;;;41.50;54.60;;;;;;5051598;28;20230;-74
2022/06/18 07:42:01;;;;;;;10.00;8.98;;;41.70;54.60;;;;;;5034201;28;20218;-74
2022/06/18 07:44:27;;;;;;;8.45;6.88;;;41.80;55.40;;;;;;5033757;28;20207;-75
2022/06/18 07:46:57;;;;;;;5.05;4.28;;;42.10;54.60;;;;;;5033189;28;20225;-75
2022/06/18 07:49:23;;;;;;;4.80;4.03;;;42.40;54.40;;;;;;5051459;28;20612;-75
2022/06/18 07:51:48;;;;;;;3.80;3.45;;;42.40;54.10;;;;;;5051987;28;20206;-75
2022/06/18 07:54:15;;;;;;;4.13;3.15;;;42.30;54.00;;;;;;5034067;28;20660;-74
2022/06/18 07:56:41;;;;;;;2.63;2.50;;;42.50;53.70;;;;;;5034015;28;20672;-74
2022/06/18 07:59:07;;;;;;;3.58;2.78;;;41.70;54.30;;;;;;5051238;28;20772;-74
2022/06/18 08:01:33;;;;;;;2.67;2.47;;;41.90;54.30;;;;;;5033554;28;20199;-74
2022/06/18 08:03:59;;;;;;;2.90;2.70;;;42.50;54.80;;;;;;5052130;28;20182;-73
2022/06/18 08:06:25;;;;;;;4.32;2.42;;;42.60;54.00;;;;;;5051487;28;20253;-74
2022/06/18 08:08:52;;;;;;;2.47;2.28;;;42.80;53.60;;;;;;5033106;28;20199;-73
2022/06/18 08:11:19;;;;;;;3.78;2.80;;;42.50;53.60;;;;;;5051732;28;20340;-73
2022/06/18 08:13:45;;;;;;;2.55;2.35;;;42.20;54.30;;;;;;5051310;28;20206;-74
2022/06/18 08:16:13;;;;;;;5.55;4.97;;;41.50;53.80;;;;;;5051443;28;20171;-74
2022/06/18 08:18:39;;;;;;;6.90;5.93;;;41.50;54.60;;;;;;5033459;28;20202;-74
2022/06/18 08:21:34;;;;;;;3.47;2.42;;;42.00;54.50;;;;;;5051339;28;20207;-74
2022/06/18 08:24:10;;;;;;;17.42;15.32;;;41.70;54.50;;;;;;5049101;28;20213;-73
2022/06/18 08:26:38;;;;;;;10.55;9.07;;;42.00;54.80;;;;;;5051114;28;20340;-74
2022/06/18 08:29:06;;;;;;;4.35;3.55;;;42.00;54.40;;;;;;5050973;28;20569;-74
2022/06/18 08:31:31;;;;;;;3.63;3.33;;;42.20;54.10;;;;;;5051042;28;20375;-73
2022/06/18 08:33:57;;;;;;;3.72;3.28;;;42.60;54.10;;;;;;5051702;28;20667;-74
2022/06/18 08:36:23;;;;;;;2.92;2.65;;;42.50;54.30;;;;;;5051242;28;20202;-74
2022/06/18 08:38:49;;;;;;;4.78;2.63;;;42.50;53.90;;;;;;5050598;28;20214;-73
2022/06/18 08:41:24;;;;;;;3.78;2.08;;;42.50;53.80;;;;;;5033354;28;20204;-73
2022/06/18 08:44:02;;;;;;;7.47;2.35;;;42.10;54.40;;;;;;5051155;28;20298;-73
2022/06/18 08:46:49;;;;;;;4.40;2.30;;;42.30;54.70;;;;;;5050808;28;20249;-73
2022/06/18 08:49:28;;;;;;;4.28;2.22;;;42.20;54.60;;;;;;5050393;28;20213;-74
2022/06/18 08:52:24;;;;;;;2.92;2.13;;;42.30;55.00;;;;;;5051477;28;20261;-73
2022/06/18 08:55:02;;;;;;;4.57;4.18;;;42.00;54.90;;;;;;5051308;28;20644;-73
2022/06/18 08:57:57;;;;;;;8.00;7.20;;;41.40;55.50;;;;;;5050760;28;20305;-74
2022/06/18 09:00:39;;;;;;;5.78;2.90;;;41.60;55.60;;;;;;5034043;28;20293;-73
2022/06/18 09:03:19;;;;;;;4.15;2.65;;;41.30;55.40;;;;;;5051237;28;20210;-73
2022/06/18 09:05:59;;;;;;;3.60;2.58;;;41.40;55.70;;;;;;5051051;28;20227;-73
2022/06/18 09:09:09;;;;;;;3.63;2.35;;;41.50;56.80;;;;;;5050392;28;20218;-73
2022/06/18 09:12:04;;;;;;;2.17;1.98;;;41.50;55.90;;;;;;5050573;28;20314;-73
2022/06/18 09:14:34;;;;;;;2.17;1.80;;;41.30;56.00;;;;;;5050340;28;20280;-72
2022/06/18 09:17:17;;;;;;;2.83;1.90;;;41.20;56.00;;;;;;5050665;28;20253;-73
2022/06/18 09:19:47;;;;;;;2.45;2.25;;;41.10;56.20;;;;;;5032132;28;20215;-73
2022/06/18 09:22:18;;;;;;;3.05;1.80;;;40.70;56.50;;;;;;5050560;28;20175;-73
2022/06/18 09:24:47;;;;;;;1.83;1.70;;;40.30;56.80;;;;;;5050992;28;20526;-74
2022/06/18 09:27:21;;;;;;;3.90;1.73;;;39.90;57.10;;;;;;5050608;28;20214;-73
2022/06/18 09:30:02;;;;;;;3.45;1.70;;;39.90;57.90;;;;;;5032410;28;20244;-72
2022/06/18 09:32:53;;;;;;;2.42;1.83;;;39.90;58.90;;;;;;5049925;28;20199;-73
2022/06/18 09:35:35;;;;;;;5.13;1.98;;;40.00;58.00;;;;;;5032691;28;20218;-73
2022/06/18 09:38:36;;;;;;;4.03;1.80;;;40.50;57.90;;;;;;5049767;28;20203;-72
2022/06/18 09:41:14;;;;;;;4.22;2.10;;;39.70;58.10;;;;;;5024072;28;20561;-72
2022/06/18 09:43:57;;;;;;;5.10;2.28;;;38.80;58.90;;;;;;5032377;28;20253;-72
2022/06/18 09:46:30;;;;;;;2.72;1.73;;;38.40;59.50;;;;;;5020794;28;20180;-72
2022/06/18 09:48:55;;;;;;;2.40;1.67;;;37.40;60.50;;;;;;5050303;28;20253;-73
2022/06/18 09:51:36;;;;;;;3.97;2.10;;;36.90;61.90;;;;;;5050073;28;20239;-73
2022/06/18 09:54:05;;;;;;;3.72;1.70;;;36.90;62.10;;;;;;5032549;28;20199;-73
2022/06/18 09:56:48;;;;;;;2.55;1.77;;;37.20;62.00;;;;;;5031930;28;20203;-74
2022/06/18 09:59:21;;;;;;;3.75;2.03;;;37.10;63.00;;;;;;5032125;28;20219;-73
2022/06/18 10:01:52;;;;;;;4.32;2.50;;;36.70;63.00;;;;;;5032458;28;20191;-73
2022/06/18 10:07:25;;;;;;;4.18;2.53;;;36.10;65.00;;;;;;5049883;28;20198;-73
2022/06/18 10:10:13;;;;;;;5.68;2.17;;;35.60;65.40;;;;;;5050413;28;20168;-72
2022/06/18 10:12:48;;;;;;;7.70;2.50;;;35.60;65.80;;;;;;5050350;28;20204;-73
2022/06/18 10:15:16;;;;;;;2.42;1.95;;;35.70;66.90;;;;;;5051149;28;20210;-72
2022/06/18 10:18:14;;;;;;;5.30;2.50;;;35.90;66.60;;;;;;5053061;28;20588;-72
2022/06/18 10:20:52;;;;;;;2.65;2.22;;;35.90;66.50;;;;;;5053265;28;20708;-73
2022/06/18 10:24:00;;;;;;;5.85;2.33;;;36.10;66.20;;;;;;5036234;28;20261;-73
2022/06/18 10:26:31;;;;;;;10.10;3.58;;;36.00;66.60;;;;;;5042055;28;20207;-72
2022/06/18 10:29:10;;;;;;;3.67;2.75;;;35.90;66.60;;;;;;5035100;28;20208;-72
2022/06/18 10:31:54;;;;;;;3.63;2.33;;;35.90;66.70;;;;;;5035308;28;20199;-72
2022/06/18 10:34:40;;;;;;;4.45;2.20;;;35.80;66.20;;;;;;5035330;28;20176;-73
2022/06/18 10:37:30;;;;;;;6.70;2.60;;;35.30;67.10;;;;;;5051298;28;20180;-73
2022/06/18 10:40:32;;;;;;;2.28;2.08;;;35.60;67.30;;;;;;5052471;28;20215;-73
2022/06/18 10:43:01;;;;;;;4.68;2.13;;;35.50;67.70;;;;;;5053666;28;20215;-74
2022/06/18 10:45:34;;;;;;;5.82;2.38;;;35.10;68.00;;;;;;5035148;28;20223;-73
2022/06/18 10:48:07;;;;;;;5.25;2.35;;;35.20;68.20;;;;;;5034431;28;20277;-74
2022/06/18 10:50:51;;;;;;;6.40;2.20;;;35.20;68.20;;;;;;5035194;28;20208;-73
2022/06/18 10:53:20;;;;;;;3.03;2.25;;;35.50;67.80;;;;;;5053067;28;20614;-73
2022/06/18 10:56:05;;;;;;;5.85;3.70;;;35.60;67.80;;;;;;5044625;28;20200;-73
2022/06/18 10:58:31;;;;;;;5.85;2.97;;;35.80;67.80;;;;;;5052754;28;20713;-74
2022/06/18 11:01:01;;;;;;;3.78;2.50;;;35.80;67.00;;;;;;5035517;28;20179;-73
2022/06/18 11:03:31;;;;;;;6.60;3.20;;;35.80;67.00;;;;;;5034747;28;20203;-73
2022/06/18 11:05:58;;;;;;;7.22;4.25;;;35.80;66.60;;;;;;5034316;28;20208;-73
2022/06/18 11:08:31;;;;;;;3.55;2.58;;;35.60;66.50;;;;;;5034302;28;20632;-73
2022/06/18 11:11:01;;;;;;;4.57;2.40;;;35.30;67.10;;;;;;5034727;28;20290;-74
2022/06/18 11:13:36;;;;;;;4.43;2.65;;;35.30;67.30;;;;;;5034679;28;20589;-74
2022/06/18 11:16:13;;;;;;;2.30;2.10;;;35.50;67.60;;;;;;5035160;28;20186;-74
2022/06/18 11:18:46;;;;;;;3.10;2.60;;;35.30;67.40;;;;;;5034500;28;20229;-74
2022/06/18 11:21:34;;;;;;;3.42;2.30;;;35.10;67.50;;;;;;5034413;28;20206;-73
2022/06/18 11:24:02;;;;;;;4.63;2.63;;;35.10;67.40;;;;;;5034630;28;20207;-74
2022/06/18 11:26:29;;;;;;;6.55;2.10;;;34.90;66.70;;;;;;5033173;28;20210;-74
2022/06/18 11:29:01;;;;;;;2.97;2.35;;;34.80;66.80;;;;;;5034704;28;20579;-73
2022/06/18 11:31:35;;;;;;;4.75;2.40;;;35.10;67.40;;;;;;5052617;28;20197;-74
2022/06/18 11:34:05;;;;;;;3.60;3.00;;;35.30;67.40;;;;;;5052781;28;20206;-74
2022/06/18 11:36:46;;;;;;;5.47;3.00;;;35.50;67.50;;;;;;5034207;28;20375;-73
2022/06/18 11:39:33;;;;;;;5.80;2.55;;;35.40;67.20;;;;;;5033726;28;20195;-73
2022/06/18 11:42:14;;;;;;;7.80;2.80;;;35.40;67.20;;;;;;5052044;28;20206;-73
2022/06/18 11:44:43;;;;;;;9.65;2.78;;;35.50;67.10;;;;;;5051879;28;20684;-73
2022/06/18 11:47:18;;;;;;;5.63;3.15;;;34.90;66.50;;;;;;5051948;28;20692;-74
2022/06/18 11:49:59;;;;;;;8.23;2.88;;;35.00;66.70;;;;;;5043966;23;20220;-75
2022/06/18 11:52:34;;;;;;;7.97;3.17;;;35.10;66.60;;;;;;5014738;28;20180;-75
2022/06/18 11:55:18;;;;;;;6.10;3.50;;;35.20;66.70;;;;;;5044089;28;20176;-75
2022/06/18 11:58:27;;;;;;;8.13;3.80;;;35.20;66.10;;;;;;5048214;28;20196;-77
2022/06/18 12:01:03;;;;;;;9.48;3.75;;;34.90;66.60;;;;;;5013231;28;20216;-76
2022/06/18 12:03:32;;;;;;;7.78;3.58;;;34.80;66.60;;;;;;5012151;28;20733;-75
2022/06/18 12:06:15;;;;;;;7.63;3.10;;;34.80;66.70;;;;;;5011273;28;20287;-75
2022/06/18 12:08:41;;;;;;;7.88;3.28;;;34.90;67.00;;;;;;4993981;28;20220;-77
2022/06/18 12:11:40;;;;;;;8.35;3.13;;;34.80;67.40;;;;;;4986945;28;20284;-76
2022/06/18 12:14:22;;;;;;;11.25;3.17;;;34.70;67.80;;;;;;5010429;28;20296;-76
2022/06/18 12:16:57;;;;;;;8.55;3.22;;;34.90;68.10;;;;;;4987068;28;20196;-75
2022/06/18 12:19:53;;;;;;;6.45;3.00;;;34.80;68.10;;;;;;5014041;28;20200;-75
2022/06/18 12:22:48;;;;;;;6.35;3.20;;;34.70;68.70;;;;;;5012100;28;20181;-75
2022/06/18 12:25:35;;;;;;;6.03;3.15;;;34.60;68.50;;;;;;4986375;28;20273;-75
2022/06/18 12:28:10;;;;;;;9.23;3.78;;;34.70;68.80;;;;;;5011902;28;20189;-74
2022/06/18 12:30:45;;;;;;;8.27;3.78;;;34.50;68.90;;;;;;5010816;28;20213;-75
2022/06/18 12:33:35;;;;;;;9.48;4.72;;;34.20;69.40;;;;;;4987612;28;20204;-75
2022/06/18 12:36:29;;;;;;;11.68;5.53;;;34.40;69.50;;;;;;5004686;28;20251;-75
2022/06/18 12:39:01;;;;;;;10.73;4.05;;;34.30;69.30;;;;;;4966284;28;20213;-75
2022/06/18 12:41:54;;;;;;;7.40;3.97;;;34.30;69.50;;;;;;5011653;28;20205;-76
2022/06/18 12:44:39;;;;;;;7.43;3.47;;;34.50;69.20;;;;;;5011192;28;20212;-75
2022/06/18 12:47:36;;;;;;;9.15;3.78;;;34.60;69.30;;;;;;4998498;28;20213;-75
2022/06/18 12:50:22;;;;;;;11.35;3.58;;;34.30;69.20;;;;;;5010086;28;20220;-76
2022/06/18 12:53:16;;;;;;;14.60;4.50;;;34.30;69.50;;;;;;4983431;28;20204;-75
2022/06/18 12:55:47;;;;;;;7.65;4.40;;;34.40;69.70;;;;;;5011704;28;20200;-75
2022/06/18 12:58:16;;;;;;;11.57;4.93;;;34.50;69.60;;;;;;4993321;28;20176;-75
2022/06/18 13:00:51;;;;;;;9.02;4.15;;;34.50;69.90;;;;;;5005114;28;20185;-77
2022/06/18 13:03:32;;;;;;;9.05;4.43;;;34.50;69.60;;;;;;4994023;28;20204;-75
2022/06/18 13:06:01;;;;;;;10.95;4.30;;;34.20;70.20;;;;;;5010337;28;20235;-75
2022/06/18 13:08:45;;;;;;;11.57;3.83;;;34.00;69.80;;;;;;5001303;28;20220;-75
2022/06/18 13:11:47;;;;;;;9.98;3.72;;;34.10;70.00;;;;;;5010167;28;20232;-76
2022/06/18 13:14:34;;;;;;;14.55;3.80;;;34.10;69.80;;;;;;4980277;28;20231;-75
2022/06/18 13:17:07;;;;;;;8.65;3.50;;;34.10;70.20;;;;;;5004192;28;20570;-74
2022/06/18 13:19:40;;;;;;;11.48;3.75;;;34.00;70.20;;;;;;4993374;28;20221;-75
2022/06/18 13:22:06;;;;;;;10.75;3.95;;;34.20;70.30;;;;;;4986090;28;20238;-76
2022/06/18 13:30:32;;;;;;;13.75;4.75;;;34.30;70.30;;;;;;5011041;28;20215;-74
2022/06/18 13:33:06;;;;;;;9.93;3.60;;;34.30;70.30;;;;;;4993656;28;20201;-75